Date,TemperatureHighF,TemperatureAvgF,TemperatureLowF,DewpointHighF,DewpointAvgF,DewpointLowF,HumidityHigh,HumidityAvg,HumidityLow,PressureMaxIn,PressureMinIn,WindSpeedMaxMPH,WindSpeedAvgMPH,GustSpeedMaxMPH,PrecipitationSumIn
2013-1-1,14,3,-6,11,-2,-11,86,78,70,30.28,30.08,11,4,17,0.00
2013-1-2,17,14,9,14,9,5,88,82,73,30.08,29.96,11,4,18,0.00
2013-1-3,19,14,6,16,10,2,90,84,77,30.18,30.04,11,6,19,0.00
2013-1-4,29,18,7,18,12,4,89,78,62,30.13,29.98,11,5,19,0.00
2013-1-5,26,16,7,18,12,4,90,82,69,30.12,29.83,11,3,15,0.00
2013-1-6,24,18,12,17,13,7,86,79,66,30.18,29.91,11,5,15,0.00
2013-1-7,34,24,13,26,19,7,89,79,70,30.10,29.86,14,7,25,0.00
2013-1-8,37,27,13,30,23,11,92,84,70,29.97,29.73,15,5,24,0.01
2013-1-9,35,30,22,27,22,17,85,75,57,30.32,29.82,21,9,31,0.01
2013-1-10,40,30,21,31,22,17,93,73,43,30.35,29.73,14,6,21,0.36
2013-1-11,41,36,33,40,34,31,95,95,93,29.75,29.35,12,5,21,0.38
2013-1-12,41,22,9,40,17,1,95,80,71,30.00,29.34,25,12,35,0.01
2013-1-13,11,7,4,5,2,0,83,79,71,30.22,29.97,13,7,18,0.00
2013-1-14,13,6,2,7,2,-2,87,82,76,30.38,30.22,12,4,18,0.00
2013-1-15,28,17,3,18,11,-1,89,77,60,30.34,29.85,13,6,23,0.00
2013-1-16,33,25,14,28,17,1,90,73,49,30.12,29.62,18,10,27,0.01
2013-1-17,16,11,6,8,2,-3,84,67,55,30.37,30.12,11,4,19,0.01
2013-1-18,40,25,7,30,20,3,87,80,66,30.32,29.70,13,6,18,0.03
2013-1-19,39,25,4,31,19,-5,90,78,60,30.06,29.59,33,11,46,0.01
2013-1-20,6,2,-2,-3,-5,-7,79,71,57,30.33,30.06,15,8,22,0.00
2013-1-21,0,-7,-10,-5,-14,-19,78,69,59,30.30,30.20,16,10,23,0.00
2013-1-22,-1,-7,-14,-7,-14,-19,77,71,61,30.42,30.27,8,4,13,0.00
2013-1-23,15,4,-6,7,-3,-15,83,72,53,30.57,30.11,20,6,30,0.00
2013-1-24,9,0,-9,1,-8,-15,76,69,64,30.68,30.25,11,4,16,0.00
2013-1-25,18,12,6,14,7,0,86,79,66,30.26,29.91,14,6,20,0.00
2013-1-26,22,11,-3,12,3,-7,85,72,59,30.37,30.18,12,4,20,0.00
2013-1-27,29,26,19,27,20,11,93,79,63,30.20,29.78,13,6,18,0.00
2013-1-28,33,30,29,30,28,27,95,92,87,29.87,29.62,3,0,6,0.16
2013-1-29,34,32,29,32,30,23,95,90,82,29.64,29.44,14,5,21,0.78
2013-1-30,28,18,10,23,13,3,86,80,73,29.63,29.48,19,12,27,0.01
2013-1-31,10,3,-4,4,-5,-12,79,72,66,30.18,29.63,16,10,24,0.00
2013-2-1,1,-5,-12,-3,-12,-18,83,71,61,30.30,30.11,13,6,20,0.00
2013-2-2,9,4,0,2,-2,-5,85,75,58,30.17,29.97,7,2,10,0.01
2013-2-3,14,9,5,5,2,0,85,74,58,30.03,29.94,14,6,17,0.01
2013-2-4,16,9,2,6,0,-5,85,66,48,30.05,29.84,6,3,10,0.02
2013-2-5,25,17,6,21,12,1,90,80,63,30.06,29.65,13,5,20,0.01
2013-2-6,24,13,1,21,10,-3,88,86,82,30.13,29.98,12,4,18,0.00
2013-2-7,25,24,23,23,21,18,92,88,83,30.20,30.00,13,8,21,0.00
2013-2-8,26,18,11,19,11,6,87,72,53,30.37,30.20,11,3,19,0.08
2013-2-9,28,23,11,24,19,5,88,84,74,30.28,29.96,12,6,22,0.01
2013-2-10,34,30,25,33,27,21,95,91,85,29.96,29.21,17,7,26,0.46
2013-2-11,33,27,20,31,23,15,94,86,78,29.96,29.21,18,11,27,0.42
2013-2-12,32,23,13,24,17,10,89,80,68,30.00,29.77,14,6,19,0.01
2013-2-13,33,26,18,29,22,15,93,84,74,29.77,29.54,9,4,13,0.03
2013-2-14,32,26,14,28,20,2,94,77,56,30.08,29.54,15,8,23,0.09
2013-2-15,16,11,7,4,2,0,75,66,54,30.24,30.08,13,7,18,0.01
2013-2-16,17,7,0,4,0,-4,84,72,54,30.21,30.16,7,3,12,0.00
2013-2-17,26,13,-4,15,6,-8,86,72,57,30.17,29.75,14,7,22,0.00
2013-2-18,35,25,16,29,20,11,90,81,75,29.76,29.47,16,8,26,0.02
2013-2-19,16,7,2,11,-2,-7,82,66,54,30.29,29.62,19,12,28,0.01
2013-2-20,20,9,-4,8,1,-8,82,70,56,30.44,30.29,12,6,18,0.00
2013-2-21,21,12,0,13,5,-4,85,72,59,30.48,30.11,13,6,19,0.00
2013-2-22,28,24,20,24,20,14,91,87,75,30.12,29.80,16,7,23,0.15
2013-2-23,29,24,21,23,21,19,91,86,77,29.91,29.79,8,5,12,0.04
2013-2-24,33,25,16,24,19,14,91,79,63,30.08,29.91,7,3,10,0.06
2013-2-25,32,27,21,26,23,17,88,84,79,30.09,30.01,5,1,7,0.01
2013-2-26,37,31,27,27,25,23,86,77,64,30.04,29.80,15,8,23,0.01
2013-2-27,34,31,29,27,24,22,82,77,71,29.91,29.77,16,10,27,0.01
2013-2-28,31,27,22,25,20,15,82,75,67,30.19,29.91,13,10,21,0.00
2013-3-1,30,23,16,16,14,10,79,68,50,30.31,30.19,14,8,21,0.00
2013-3-2,28,18,8,13,9,5,87,68,45,30.32,30.17,7,4,11,0.00
2013-3-3,32,18,6,12,4,-4,76,56,36,30.17,30.04,7,4,9,0.00
2013-3-4,27,22,15,19,10,-3,85,60,44,30.06,29.99,15,8,23,0.00
2013-3-5,26,23,21,23,20,18,90,87,82,30.21,29.99,13,8,18,0.01
2013-3-6,29,22,13,18,15,9,86,75,57,30.36,30.20,10,6,17,0.10
2013-3-7,34,20,6,18,12,2,88,72,51,30.41,30.33,6,3,9,0.11
2013-3-8,40,28,15,28,21,12,88,74,62,30.37,30.15,10,5,18,0.01
2013-3-9,35,33,30,34,30,23,95,90,76,30.14,29.70,14,6,19,0.45
2013-3-10,36,34,29,34,30,26,95,88,79,29.88,29.71,16,9,25,0.22
2013-3-11,30,27,26,27,24,20,93,88,79,29.78,29.65,15,9,23,0.01
2013-3-12,29,23,18,22,16,10,89,74,50,30.10,29.75,14,9,23,0.01
2013-3-13,32,21,10,15,8,3,80,58,36,30.32,30.09,13,7,18,0.01
2013-3-14,37,25,15,27,19,10,88,79,68,30.27,30.00,8,3,11,0.04
2013-3-15,35,29,24,29,25,22,92,85,73,30.00,29.82,12,6,19,0.10
2013-3-16,26,20,13,22,13,4,91,75,56,30.19,29.83,13,7,20,0.21
2013-3-17,27,16,3,14,6,-4,74,64,50,30.26,29.96,16,7,25,0.02
2013-3-18,27,20,14,24,16,10,90,85,73,29.95,29.55,19,11,31,0.01
2013-3-19,22,14,7,10,5,-1,84,68,51,30.08,29.66,21,16,31,0.00
2013-3-20,18,10,1,4,-1,-7,75,62,52,30.12,30.08,16,9,22,0.00
2013-3-21,27,13,0,11,4,-4,85,69,48,30.11,30.04,9,4,12,0.03
2013-3-22,36,21,7,17,10,3,84,63,44,30.08,30.02,9,3,11,0.05
2013-3-23,39,28,16,23,18,11,88,68,50,30.13,30.03,8,3,14,0.01
2013-3-24,32,28,23,24,21,17,81,73,63,30.08,29.91,16,8,25,0.00
2013-3-25,36,27,19,23,18,14,81,70,51,30.16,29.95,15,8,22,0.00
2013-3-26,38,31,24,24,21,17,79,65,47,30.24,30.16,7,3,13,0.00
2013-3-27,44,35,29,23,19,15,74,53,33,30.29,30.24,6,4,10,0.00
2013-3-28,46,32,20,23,18,15,82,57,33,30.32,30.25,7,2,10,0.00
2013-3-29,44,35,23,26,21,15,76,58,43,30.30,30.11,10,3,14,0.00
2013-3-30,41,38,31,38,32,-100,94,83,58,30.11,29.78,13,5,20,0.61
2013-3-31,38,32,26,32,24,12,95,72,41,29.98,29.71,20,10,29,0.01
2013-4-1,30,24,17,15,12,8,75,60,49,30.19,29.98,17,10,26,0.01
2013-4-2,34,25,15,17,13,9,75,60,42,30.33,30.19,12,7,17,0.00
2013-4-3,39,29,13,25,17,8,82,60,37,30.43,30.10,16,6,25,0.00
2013-4-4,47,40,33,33,27,20,72,60,43,30.11,29.98,15,9,21,0.00
2013-4-5,42,34,26,30,20,15,93,59,41,30.23,29.99,11,5,17,0.00
2013-4-6,45,36,32,35,30,24,93,79,56,29.99,29.47,18,10,28,0.38
2013-4-7,44,37,34,34,32,31,91,82,67,29.92,29.66,8,4,14,0.28
2013-4-8,41,37,34,37,34,32,93,90,84,30.00,29.70,13,5,17,0.50
2013-4-9,39,36,33,36,32,25,93,85,64,30.13,29.95,16,9,27,0.34
2013-4-10,39,34,27,28,25,19,92,71,48,30.15,29.90,18,10,33,0.32
2013-4-11,37,33,28,31,26,18,92,78,49,29.91,29.66,24,15,34,0.23
2013-4-12,36,31,27,29,26,24,92,84,66,29.77,29.61,13,7,23,0.26
2013-4-13,35,29,24,26,23,20,91,77,61,29.97,29.77,13,5,18,0.01
2013-4-14,33,29,22,31,25,18,93,87,76,29.97,29.56,19,6,30,0.01
2013-4-15,39,36,33,32,29,25,94,78,64,29.92,29.57,19,9,33,0.26
2013-4-16,45,37,32,29,27,25,80,70,52,30.30,29.90,12,6,20,0.20
2013-4-17,40,35,30,32,28,25,92,76,69,30.31,29.85,24,10,33,0.13
2013-4-18,36,34,30,33,32,28,93,92,87,29.86,29.30,14,9,22,0.56
2013-4-19,34,30,25,28,25,20,93,81,64,29.93,29.28,20,13,37,0.13
2013-4-20,41,30,20,21,15,10,85,56,33,30.32,29.93,10,4,16,0.01
2013-4-21,43,35,30,40,29,15,93,80,53,30.34,30.08,15,8,26,0.47
2013-4-22,44,37,32,42,35,29,94,93,90,30.17,29.98,19,8,30,0.92
2013-4-23,41,34,31,30,27,21,94,76,49,30.06,29.95,15,9,24,0.55
2013-4-24,49,37,26,32,26,19,92,66,39,30.01,29.85,16,8,29,0.03
2013-4-25,47,38,31,34,30,27,93,75,50,30.18,29.92,11,6,18,0.03
2013-4-26,70,54,37,44,37,27,70,54,35,30.14,29.98,18,8,28,0.01
2013-4-27,72,57,42,50,45,38,92,66,39,30.07,29.88,15,5,22,0.00
2013-4-28,73,61,47,52,45,41,84,58,37,29.88,29.63,17,7,25,0.05
2013-4-29,73,60,51,55,53,49,95,78,50,29.74,29.58,9,4,18,0.06
2013-4-30,78,65,55,59,49,28,87,59,32,29.90,29.46,21,9,32,0.01
2013-5-1,58,42,32,42,36,29,93,79,33,30.44,29.89,15,9,23,0.20
2013-5-2,33,31,30,31,29,28,95,94,92,30.50,30.41,17,10,23,0.35
2013-5-3,33,31,30,31,29,28,93,91,89,30.42,30.14,19,11,29,0.36
2013-5-4,50,39,32,43,35,30,94,86,73,30.15,30.09,12,7,17,0.85
2013-5-5,64,48,35,47,39,32,90,73,52,30.15,30.05,9,5,14,0.08
2013-5-6,74,58,39,49,40,35,88,57,25,30.09,29.98,8,2,13,0.00
2013-5-7,78,65,49,48,41,37,72,44,24,30.04,29.92,9,3,15,0.00
2013-5-8,80,66,50,50,44,39,70,48,28,29.97,29.89,10,3,17,0.00
2013-5-9,64,52,41,48,45,37,92,77,57,30.04,29.90,15,9,25,0.59
2013-5-10,65,49,35,37,28,-100,88,51,22,30.07,29.88,13,7,22,0.33
2013-5-11,51,44,38,39,28,-100,81,55,40,30.10,29.83,26,14,39,0.02
2013-5-12,54,44,31,26,20,14,66,41,21,30.17,30.07,17,9,27,0.01
2013-5-13,61,49,32,38,28,19,64,46,27,30.14,29.71,11,6,20,0.00
2013-5-14,89,68,46,54,44,29,79,48,16,29.75,29.41,23,7,36,0.01
2013-5-15,76,66,56,48,44,37,65,46,28,29.84,29.53,17,9,30,0.01
2013-5-16,81,62,51,52,25,-100,80,45,20,29.90,29.78,15,5,20,0.00
2013-5-17,64,55,51,52,41,-100,91,71,31,30.05,29.90,16,10,23,0.15
2013-5-18,78,61,51,63,54,48,92,79,57,30.05,29.85,13,6,23,0.09
2013-5-19,83,68,62,65,61,58,92,78,50,29.87,29.61,17,6,24,0.39
2013-5-20,73,65,60,61,58,54,94,80,59,29.66,29.53,21,8,34,0.81
2013-5-21,67,61,55,62,57,52,95,87,70,29.69,29.54,10,4,29,0.75
2013-5-22,57,51,47,52,48,44,91,88,79,29.93,29.67,15,8,24,0.11
2013-5-23,61,50,40,47,34,27,87,57,30,30.36,29.93,18,11,28,0.10
2013-5-24,66,52,35,42,35,29,83,55,33,30.46,30.28,12,4,18,0.00
2013-5-25,60,55,51,49,45,39,86,68,51,30.33,30.27,15,6,21,0.00
2013-5-26,65,56,45,46,40,34,82,57,33,30.30,30.13,15,7,25,0.00
2013-5-27,60,55,51,52,47,41,92,74,60,30.14,29.88,15,9,26,0.10
2013-5-28,57,54,51,55,52,49,94,93,90,29.88,29.72,9,4,17,0.18
2013-5-29,77,62,54,67,59,53,95,90,71,29.86,29.70,14,4,33,0.25
2013-5-30,74,68,62,67,63,59,93,85,71,29.75,29.54,19,9,31,0.70
2013-5-31,76,66,58,63,59,50,91,80,60,29.62,29.53,20,8,35,0.47
2013-6-1,71,58,48,60,53,43,94,85,61,29.87,29.57,16,6,28,0.27
2013-6-2,64,51,43,45,41,38,88,70,41,30.08,29.87,15,7,22,0.02
2013-6-3,71,57,42,50,44,40,93,64,35,30.09,29.99,9,3,13,0.00
2013-6-4,58,55,52,53,48,40,91,77,54,30.16,30.04,13,6,19,0.04
2013-6-5,54,52,50,53,50,48,95,93,90,30.13,29.97,12,6,18,0.21
2013-6-6,54,52,50,51,50,48,95,92,88,30.03,29.96,9,5,14,0.14
2013-6-7,69,58,51,51,48,42,95,72,42,30.05,29.93,7,3,11,0.01
2013-6-8,70,61,52,57,52,49,92,75,58,29.96,29.92,12,5,18,0.00
2013-6-9,66,59,54,63,54,49,92,86,75,29.96,29.81,12,7,21,0.24
2013-6-10,76,66,56,64,60,55,97,83,61,29.85,29.80,9,2,14,0.11
2013-6-11,77,66,56,66,61,55,97,85,65,29.89,29.81,7,2,15,0.00
2013-6-12,70,65,61,65,62,58,97,92,83,29.91,29.74,12,4,20,0.36
2013-6-13,76,66,57,62,54,50,89,65,44,30.08,29.84,13,8,19,0.01
2013-6-14,76,65,52,60,55,50,92,70,50,30.12,29.91,14,5,19,0.19
2013-6-15,72,66,61,68,62,58,96,89,82,29.97,29.79,10,5,17,1.06
2013-6-16,81,69,53,61,55,49,97,66,35,29.90,29.82,15,6,27,0.35
2013-6-17,78,68,56,61,55,51,89,67,48,30.00,29.83,13,6,20,0.01
2013-6-18,74,63,55,54,51,43,88,67,36,30.11,30.00,12,6,16,0.00
2013-6-19,78,67,54,61,55,48,82,67,54,30.12,29.99,9,4,16,0.00
2013-6-20,77,68,61,66,60,57,91,76,61,30.05,29.95,17,5,27,0.03
2013-6-22,78,74,66,69,68,65,96,83,71,29.97,29.87,7,4,13,0.42
2013-6-23,80,73,66,70,66,63,94,79,59,29.90,29.74,20,8,34,0.18
2013-6-24,80,72,62,71,67,61,97,85,71,29.91,29.81,14,4,23,0.00
2013-6-25,82,73,63,71,67,62,96,80,65,29.86,29.74,9,4,19,0.00
2013-6-26,80,73,69,75,70,68,98,93,80,29.79,29.70,9,3,16,0.82
2013-6-27,83,74,64,71,64,56,98,75,44,29.82,29.75,23,8,33,0.02
2013-6-28,74,67,62,66,61,56,90,80,70,29.79,29.70,19,9,28,0.09
2013-6-29,72,64,60,61,56,48,91,77,57,29.99,29.75,14,8,22,0.02
2013-6-30,80,67,56,55,50,45,71,56,37,30.12,29.99,10,6,17,0.01
2013-7-1,81,70,58,60,53,48,75,56,41,30.20,30.12,8,4,14,0.00
2013-7-2,80,66,54,59,54,49,88,65,38,30.17,30.07,9,4,12,0.00
2013-7-3,78,68,56,62,56,52,93,67,43,30.11,30.00,10,2,14,0.00
2013-7-4,82,72,58,65,60,55,91,69,50,30.02,29.93,14,5,21,0.00
2013-7-5,84,75,64,64,61,58,82,63,47,29.97,29.88,16,7,27,0.00
2013-7-6,87,76,68,70,64,60,80,69,55,29.94,29.86,10,6,19,0.00
2013-7-7,86,79,70,73,70,66,93,76,63,29.88,29.83,12,4,19,0.12
2013-7-8,86,74,69,73,69,-100,96,85,60,29.98,29.84,7,3,12,0.01
2013-7-9,83,75,69,74,70,67,97,85,65,29.98,29.79,20,6,30,0.16
2013-7-10,76,69,62,68,57,-100,87,69,49,30.04,29.85,17,9,25,0.13
2013-7-11,82,70,57,62,59,55,95,69,43,30.14,30.03,8,2,13,0.00
2013-7-12,83,73,63,66,62,58,86,70,53,30.10,29.99,14,6,24,0.00
2013-7-13,77,71,64,66,62,59,90,75,62,30.12,29.99,13,5,21,0.06
2013-7-14,84,75,66,68,65,62,89,72,55,30.22,30.11,10,4,18,0.04
2013-7-15,89,76,65,71,67,63,95,75,51,30.27,30.19,9,2,17,0.00
2013-7-16,92,82,73,75,72,69,92,73,50,30.23,30.17,12,4,22,0.00
2013-7-17,93,82,72,73,70,67,93,68,44,30.25,30.12,13,4,20,0.00
2013-7-18,93,83,72,73,70,68,90,67,45,30.12,29.77,19,8,31,0.00
2013-7-19,84,79,68,73,65,55,85,64,43,29.87,29.69,17,10,30,0.04
2013-7-20,80,70,63,61,57,-100,86,65,45,30.01,29.86,10,5,19,0.01
2013-7-21,75,65,57,66,58,48,93,80,58,30.02,29.89,11,5,19,0.40
2013-7-22,85,71,61,74,64,56,95,80,58,29.91,29.66,16,6,25,0.07
2013-7-23,73,64,56,56,53,49,87,68,47,30.06,29.82,12,6,19,0.00
2013-7-24,73,63,50,56,52,47,91,68,47,30.13,30.03,6,2,12,0.00
2013-7-25,80,68,55,67,60,52,92,79,58,30.04,29.93,14,5,21,0.37
2013-7-26,70,63,51,64,57,47,96,82,64,30.06,29.89,17,8,30,0.37
2013-7-27,58,52,45,51,47,43,93,84,68,30.06,29.93,18,8,28,0.03
2013-7-28,68,57,47,56,51,45,94,82,63,30.08,29.94,13,7,19,0.03
2013-7-29,76,62,48,59,54,46,96,75,49,30.17,30.08,7,2,12,0.01
2013-7-30,72,66,61,64,60,56,91,81,69,30.15,30.06,8,2,13,0.01
2013-7-31,78,68,60,66,61,52,96,78,46,30.08,29.96,16,6,24,0.00
2013-8-1,78,66,55,57,54,50,86,68,42,30.03,29.87,14,6,22,0.00
2013-8-2,76,67,56,59,55,51,92,68,43,30.03,29.84,15,6,19,0.00
2013-8-3,75,66,53,54,51,47,89,62,39,30.19,30.02,13,5,18,0.00
2013-8-4,77,64,50,57,52,48,94,68,40,30.27,30.08,11,3,20,0.00
2013-8-5,72,64,57,66,60,53,94,87,77,30.08,29.83,11,3,14,0.16
2013-8-6,82,69,60,67,62,57,96,79,50,29.85,29.69,14,5,45,0.12
2013-8-7,74,65,57,61,56,51,96,77,46,30.03,29.75,11,5,19,0.11
2013-8-8,77,63,49,57,53,47,95,72,43,30.07,30.00,9,3,15,0.00
2013-8-9,77,66,57,59,54,51,94,69,41,30.12,29.99,12,6,22,0.00
2013-8-10,74,65,57,56,54,51,85,68,47,30.19,30.11,8,3,13,0.00
2013-8-11,78,65,55,61,57,52,93,77,53,30.12,30.01,4,1,9,0.00
2013-8-21,87,76,67,73,69,66,96,81,61,30.01,29.87,22,5,38,0.75
2013-8-22,84,70,63,65,58,53,97,69,38,30.14,30.00,8,4,15,0.01
2013-8-23,85,70,55,65,59,51,88,70,47,30.19,30.09,10,4,15,0.00
2013-8-24,84,71,61,72,62,-100,93,76,65,30.18,30.02,16,7,26,0.82
2013-8-25,91,82,74,76,73,70,86,74,59,30.06,29.96,16,10,23,0.01
2013-8-26,92,82,74,77,74,70,90,76,59,30.05,29.88,13,6,21,0.00
2013-8-27,91,81,76,78,74,70,87,79,65,29.91,29.80,8,5,15,0.00
2013-10-2,68,52,40,52,42,37,92,73,43,30.10,29.92,13,3,21,0.24
2013-10-3,59,56,53,56,54,52,96,94,87,29.98,29.83,13,6,21,1.48
2013-10-4,57,56,54,56,54,53,97,95,91,30.02,29.91,14,10,25,0.01
2013-10-5,61,57,50,60,56,49,97,96,94,29.93,29.70,14,6,20,1.06
2013-10-6,56,49,42,49,45,41,98,88,65,29.81,29.70,12,4,19,0.04
2013-10-7,63,50,43,50,44,40,96,80,43,30.04,29.81,12,6,18,0.01
2013-10-8,73,59,44,51,45,40,92,64,38,30.05,29.93,17,7,29,0.01
2013-10-9,72,62,54,55,50,46,80,66,50,30.11,30.00,16,6,23,0.00
2013-10-10,71,58,46,53,48,43,89,71,46,30.11,29.98,12,4,21,0.00
2013-10-18,50,43,37,45,37,31,95,81,50,29.96,29.80,18,6,27,0.21
2013-10-19,45,37,34,39,32,-100,95,86,72,29.88,29.72,10,5,17,0.03
2013-10-20,41,36,30,40,34,29,97,95,91,29.83,29.67,14,5,23,0.12
2013-10-21,37,34,32,34,27,21,94,74,55,29.95,29.83,19,12,29,0.01
2013-10-22,38,33,26,30,27,24,94,81,70,30.05,29.95,10,5,14,0.01
2013-10-23,38,32,26,32,27,23,93,83,68,30.10,30.01,13,6,18,0.00
2013-10-24,41,36,31,32,28,25,83,74,57,30.30,30.09,14,7,20,0.00
2013-10-25,53,46,32,40,35,29,91,66,58,30.30,29.75,21,12,34,0.00
2013-10-26,52,43,35,41,31,-100,88,67,55,30.06,29.72,17,10,26,0.00
2013-10-27,59,42,27,36,31,25,93,69,40,30.12,29.81,16,7,25,0.00
2013-10-28,45,35,29,32,23,-100,83,66,43,30.45,30.13,16,8,27,0.00
2013-10-29,42,35,28,36,29,20,89,80,70,30.45,30.13,11,6,16,0.01
2013-10-30,51,44,39,50,43,36,97,96,89,30.13,29.68,7,4,12,0.20
2013-12-21,23,20,18,19,15,-100,91,85,82,29.94,29.81,9,4,15,0.00
2013-12-22,25,22,15,22,18,13,91,88,85,30.10,29.84,11,7,16,0.00
2013-12-23,14,5,-5,11,2,-8,89,86,82,30.45,30.11,10,8,16,0.00
2013-12-24,10,0,-11,6,-4,-15,89,84,78,30.48,30.19,9,4,17,0.00
2013-12-25,18,12,8,16,10,5,91,89,86,30.17,30.02,12,5,17,0.00
2013-12-26,21,15,10,17,12,7,91,88,85,30.16,30.08,6,2,13,0.00
2013-12-27,36,22,7,31,20,4,94,88,77,30.16,29.86,13,5,19,0.01